sensor_id;sensor_type;location;lat;lon;timestamp;P1;durP1;ratioP1;P2;durP2;ratioP2
65368;SDS011;51970;53.484;49.488;2023-12-29T00:00:57;6.10;;;3.40;;
65368;SDS011;51970;53.484;49.488;2023-12-29T00:03:23;6.50;;;2.63;;
65368;SDS011;51970;53.484;49.488;2023-12-29T00:05:49;6.38;;;3.50;;
65368;SDS011;51970;53.484;49.488;2023-12-29T00:08:16;8.38;;;3.28;;
65368;SDS011;51970;53.484;49.488;2023-12-29T00:10:42;5.93;;;2.20;;
65368;SDS011;51970;53.484;49.488;2023-12-29T00:13:09;7.75;;;3.70;;
65368;SDS011;51970;53.484;49.488;2023-12-29T00:15:35;7.75;;;2.65;;
65368;SDS011;51970;53.484;49.488;2023-12-29T00:18:01;5.95;;;2.55;;
65368;SDS011;51970;53.484;49.488;2023-12-29T00:20:28;4.53;;;2.17;;
65368;SDS011;51970;53.484;49.488;2023-12-29T00:22:55;6.38;;;3.35;;
65368;SDS011;51970;53.484;49.488;2023-12-29T00:25:23;7.45;;;2.80;;
65368;SDS011;51970;53.484;49.488;2023-12-29T00:27:49;5.05;;;2.47;;
65368;SDS011;51970;53.484;49.488;2023-12-29T00:30:15;5.70;;;2.55;;
65368;SDS011;51970;53.484;49.488;2023-12-29T00:32:42;4.43;;;2.40;;
65368;SDS011;51970;53.484;49.488;2023-12-29T00:35:08;6.28;;;3.15;;
65368;SDS011;51970;53.484;49.488;2023-12-29T00:37:34;8.25;;;3.40;;
65368;SDS011;51970;53.484;49.488;2023-12-29T00:40:00;6.47;;;3.55;;
65368;SDS011;51970;53.484;49.488;2023-12-29T00:42:26;9.38;;;3.72;;
65368;SDS011;51970;53.484;49.488;2023-12-29T00:44:52;6.20;;;2.55;;
65368;SDS011;51970;53.484;49.488;2023-12-29T00:47:19;6.60;;;2.85;;
65368;SDS011;51970;53.484;49.488;2023-12-29T00:49:45;8.02;;;2.42;;
65368;SDS011;51970;53.484;49.488;2023-12-29T00:52:11;6.78;;;3.58;;
65368;SDS011;51970;53.484;49.488;2023-12-29T00:54:37;6.68;;;3.00;;
65368;SDS011;51970;53.484;49.488;2023-12-29T00:57:03;6.18;;;3.17;;
65368;SDS011;51970;53.484;49.488;2023-12-29T00:59:29;7.32;;;3.67;;
65368;SDS011;51970;53.484;49.488;2023-12-29T01:01:55;6.78;;;4.00;;
65368;SDS011;51970;53.484;49.488;2023-12-29T01:04:22;6.47;;;3.67;;
65368;SDS011;51970;53.484;49.488;2023-12-29T01:06:48;6.22;;;2.92;;
65368;SDS011;51970;53.484;49.488;2023-12-29T01:09:14;8.20;;;3.72;;
65368;SDS011;51970;53.484;49.488;2023-12-29T01:11:40;5.15;;;2.50;;
65368;SDS011;51970;53.484;49.488;2023-12-29T01:14:07;7.72;;;2.90;;
65368;SDS011;51970;53.484;49.488;2023-12-29T01:16:33;5.80;;;3.13;;
65368;SDS011;51970;53.484;49.488;2023-12-29T01:18:59;5.68;;;2.65;;
65368;SDS011;51970;53.484;49.488;2023-12-29T01:21:26;6.53;;;3.33;;
65368;SDS011;51970;53.484;49.488;2023-12-29T01:23:52;7.10;;;3.83;;
65368;SDS011;51970;53.484;49.488;2023-12-29T01:26:18;7.38;;;3.53;;
65368;SDS011;51970;53.484;49.488;2023-12-29T01:28:44;6.30;;;3.55;;
65368;SDS011;51970;53.484;49.488;2023-12-29T01:31:11;6.30;;;2.85;;
65368;SDS011;51970;53.484;49.488;2023-12-29T01:33:39;6.72;;;3.75;;
65368;SDS011;51970;53.484;49.488;2023-12-29T01:36:05;5.55;;;2.50;;
65368;SDS011;51970;53.484;49.488;2023-12-29T01:38:31;5.15;;;3.22;;
65368;SDS011;51970;53.484;49.488;2023-12-29T01:40:57;5.35;;;2.40;;
65368;SDS011;51970;53.484;49.488;2023-12-29T01:43:23;5.50;;;2.28;;
65368;SDS011;51970;53.484;49.488;2023-12-29T01:45:49;5.00;;;2.17;;
65368;SDS011;51970;53.484;49.488;2023-12-29T01:48:15;6.13;;;3.33;;
65368;SDS011;51970;53.484;49.488;2023-12-29T01:50:42;6.20;;;2.38;;
65368;SDS011;51970;53.484;49.488;2023-12-29T01:53:09;5.72;;;3.30;;
65368;SDS011;51970;53.484;49.488;2023-12-29T01:55:36;4.72;;;2.35;;
65368;SDS011;51970;53.484;49.488;2023-12-29T01:58:03;5.50;;;2.22;;
65368;SDS011;51970;53.484;49.488;2023-12-29T02:00:29;5.85;;;2.75;;
65368;SDS011;51970;53.484;49.488;2023-12-29T02:02:57;6.65;;;2.90;;
65368;SDS011;51970;53.484;49.488;2023-12-29T02:05:23;5.93;;;2.72;;
65368;SDS011;51970;53.484;49.488;2023-12-29T02:07:52;7.00;;;3.40;;
65368;SDS011;51970;53.484;49.488;2023-12-29T02:10:19;5.90;;;2.40;;
65368;SDS011;51970;53.484;49.488;2023-12-29T02:12:46;6.13;;;3.08;;
65368;SDS011;51970;53.484;49.488;2023-12-29T02:15:14;5.28;;;2.90;;
65368;SDS011;51970;53.484;49.488;2023-12-29T02:17:41;5.53;;;3.42;;
65368;SDS011;51970;53.484;49.488;2023-12-29T02:20:13;6.75;;;2.55;;
65368;SDS011;51970;53.484;49.488;2023-12-29T02:22:40;4.80;;;2.08;;
65368;SDS011;51970;53.484;49.488;2023-12-29T02:25:06;6.93;;;1.80;;
65368;SDS011;51970;53.484;49.488;2023-12-29T02:31:00;7.30;;;3.28;;
65368;SDS011;51970;53.484;49.488;2023-12-29T02:33:32;6.97;;;2.92;;
65368;SDS011;51970;53.484;49.488;2023-12-29T02:36:06;8.93;;;2.90;;
65368;SDS011;51970;53.484;49.488;2023-12-29T02:38:33;6.68;;;2.63;;
65368;SDS011;51970;53.484;49.488;2023-12-29T02:40:59;8.38;;;3.83;;
65368;SDS011;51970;53.484;49.488;2023-12-29T02:43:26;6.70;;;2.83;;
65368;SDS011;51970;53.484;49.488;2023-12-29T02:45:52;6.55;;;2.85;;
65368;SDS011;51970;53.484;49.488;2023-12-29T02:48:18;6.40;;;2.75;;
65368;SDS011;51970;53.484;49.488;2023-12-29T02:50:44;5.45;;;2.55;;
65368;SDS011;51970;53.484;49.488;2023-12-29T02:53:10;6.25;;;3.53;;
65368;SDS011;51970;53.484;49.488;2023-12-29T02:55:37;5.50;;;2.10;;
65368;SDS011;51970;53.484;49.488;2023-12-29T02:58:03;6.43;;;2.63;;
65368;SDS011;51970;53.484;49.488;2023-12-29T03:00:29;7.85;;;3.53;;
65368;SDS011;51970;53.484;49.488;2023-12-29T03:02:55;6.28;;;3.30;;
65368;SDS011;51970;53.484;49.488;2023-12-29T03:05:21;6.97;;;3.33;;
65368;SDS011;51970;53.484;49.488;2023-12-29T03:07:48;6.88;;;3.67;;
65368;SDS011;51970;53.484;49.488;2023-12-29T03:10:14;5.43;;;2.22;;
65368;SDS011;51970;53.484;49.488;2023-12-29T03:12:40;6.97;;;2.70;;
65368;SDS011;51970;53.484;49.488;2023-12-29T03:15:06;7.45;;;3.15;;
65368;SDS011;51970;53.484;49.488;2023-12-29T03:17:33;6.68;;;2.25;;
65368;SDS011;51970;53.484;49.488;2023-12-29T03:19:59;5.78;;;2.53;;
65368;SDS011;51970;53.484;49.488;2023-12-29T03:22:26;4.07;;;2.15;;
65368;SDS011;51970;53.484;49.488;2023-12-29T03:24:53;5.65;;;2.35;;
65368;SDS011;51970;53.484;49.488;2023-12-29T03:27:19;6.47;;;2.67;;
65368;SDS011;51970;53.484;49.488;2023-12-29T03:29:46;5.00;;;3.05;;
65368;SDS011;51970;53.484;49.488;2023-12-29T03:32:12;8.27;;;4.40;;
65368;SDS011;51970;53.484;49.488;2023-12-29T03:34:38;7.32;;;3.35;;
65368;SDS011;51970;53.484;49.488;2023-12-29T03:37:04;5.65;;;2.95;;
65368;SDS011;51970;53.484;49.488;2023-12-29T03:39:31;6.38;;;3.45;;
65368;SDS011;51970;53.484;49.488;2023-12-29T03:42:01;6.72;;;2.65;;
65368;SDS011;51970;53.484;49.488;2023-12-29T03:44:27;7.82;;;3.05;;
65368;SDS011;51970;53.484;49.488;2023-12-29T03:46:54;6.55;;;4.00;;
65368;SDS011;51970;53.484;49.488;2023-12-29T03:49:20;6.50;;;3.50;;
65368;SDS011;51970;53.484;49.488;2023-12-29T03:51:46;7.53;;;2.88;;
65368;SDS011;51970;53.484;49.488;2023-12-29T03:54:13;6.10;;;2.78;;
65368;SDS011;51970;53.484;49.488;2023-12-29T03:56:39;7.57;;;3.58;;
65368;SDS011;51970;53.484;49.488;2023-12-29T03:59:05;8.38;;;4.30;;
65368;SDS011;51970;53.484;49.488;2023-12-29T04:01:33;7.10;;;3.30;;
65368;SDS011;51970;53.484;49.488;2023-12-29T04:04:00;5.22;;;2.38;;
65368;SDS011;51970;53.484;49.488;2023-12-29T04:06:26;6.05;;;2.70;;
65368;SDS011;51970;53.484;49.488;2023-12-29T04:08:53;6.03;;;2.83;;
65368;SDS011;51970;53.484;49.488;2023-12-29T04:11:19;6.18;;;3.45;;
65368;SDS011;51970;53.484;49.488;2023-12-29T04:13:45;5.68;;;2.63;;
65368;SDS011;51970;53.484;49.488;2023-12-29T04:16:12;7.22;;;4.32;;
65368;SDS011;51970;53.484;49.488;2023-12-29T04:18:38;7.45;;;2.80;;
65368;SDS011;51970;53.484;49.488;2023-12-29T04:21:04;7.03;;;2.95;;
65368;SDS011;51970;53.484;49.488;2023-12-29T04:23:30;8.73;;;3.35;;
65368;SDS011;51970;53.484;49.488;2023-12-29T04:25:57;7.30;;;3.67;;
65368;SDS011;51970;53.484;49.488;2023-12-29T04:28:23;7.32;;;3.90;;
65368;SDS011;51970;53.484;49.488;2023-12-29T04:30:50;8.07;;;3.05;;
65368;SDS011;51970;53.484;49.488;2023-12-29T04:33:16;7.43;;;3.50;;
65368;SDS011;51970;53.484;49.488;2023-12-29T04:35:42;6.15;;;3.08;;
65368;SDS011;51970;53.484;49.488;2023-12-29T04:38:09;6.93;;;2.92;;
65368;SDS011;51970;53.484;49.488;2023-12-29T04:40:36;6.65;;;2.47;;
65368;SDS011;51970;53.484;49.488;2023-12-29T04:43:03;4.25;;;1.90;;
65368;SDS011;51970;53.484;49.488;2023-12-29T04:45:29;5.20;;;2.42;;
65368;SDS011;51970;53.484;49.488;2023-12-29T04:47:56;6.22;;;2.55;;
65368;SDS011;51970;53.484;49.488;2023-12-29T04:50:23;7.82;;;3.40;;
65368;SDS011;51970;53.484;49.488;2023-12-29T04:52:49;6.07;;;2.72;;
65368;SDS011;51970;53.484;49.488;2023-12-29T04:55:15;6.32;;;2.90;;
65368;SDS011;51970;53.484;49.488;2023-12-29T04:57:42;10.35;;;3.40;;
65368;SDS011;51970;53.484;49.488;2023-12-29T05:00:08;7.53;;;3.70;;
65368;SDS011;51970;53.484;49.488;2023-12-29T05:02:35;9.25;;;4.20;;
65368;SDS011;51970;53.484;49.488;2023-12-29T05:05:01;7.65;;;3.88;;
65368;SDS011;51970;53.484;49.488;2023-12-29T05:07:27;6.97;;;3.13;;
65368;SDS011;51970;53.484;49.488;2023-12-29T05:09:54;9.65;;;3.90;;
65368;SDS011;51970;53.484;49.488;2023-12-29T05:12:20;8.45;;;3.72;;
65368;SDS011;51970;53.484;49.488;2023-12-29T05:14:46;7.35;;;4.18;;
65368;SDS011;51970;53.484;49.488;2023-12-29T05:17:13;6.45;;;2.67;;
65368;SDS011;51970;53.484;49.488;2023-12-29T05:19:40;7.10;;;2.92;;
65368;SDS011;51970;53.484;49.488;2023-12-29T05:22:06;5.95;;;2.60;;
65368;SDS011;51970;53.484;49.488;2023-12-29T05:24:33;7.22;;;3.25;;
65368;SDS011;51970;53.484;49.488;2023-12-29T05:26:59;5.95;;;2.58;;
65368;SDS011;51970;53.484;49.488;2023-12-29T05:29:25;6.45;;;3.40;;
65368;SDS011;51970;53.484;49.488;2023-12-29T05:31:56;7.18;;;2.80;;
65368;SDS011;51970;53.484;49.488;2023-12-29T05:34:23;6.82;;;3.45;;
65368;SDS011;51970;53.484;49.488;2023-12-29T05:36:49;6.70;;;3.35;;
65368;SDS011;51970;53.484;49.488;2023-12-29T05:39:16;5.88;;;3.13;;
65368;SDS011;51970;53.484;49.488;2023-12-29T05:41:42;7.65;;;3.90;;
65368;SDS011;51970;53.484;49.488;2023-12-29T05:44:08;6.25;;;2.63;;
65368;SDS011;51970;53.484;49.488;2023-12-29T05:46:35;5.75;;;2.42;;
65368;SDS011;51970;53.484;49.488;2023-12-29T05:49:01;6.28;;;3.33;;
65368;SDS011;51970;53.484;49.488;2023-12-29T05:51:28;7.57;;;3.65;;
65368;SDS011;51970;53.484;49.488;2023-12-29T05:53:54;5.68;;;2.45;;
65368;SDS011;51970;53.484;49.488;2023-12-29T05:56:20;5.22;;;2.08;;
65368;SDS011;51970;53.484;49.488;2023-12-29T05:58:47;5.35;;;2.08;;
65368;SDS011;51970;53.484;49.488;2023-12-29T06:01:14;5.07;;;2.50;;
65368;SDS011;51970;53.484;49.488;2023-12-29T06:03:41;5.65;;;2.40;;
65368;SDS011;51970;53.484;49.488;2023-12-29T06:06:08;7.55;;;3.85;;
65368;SDS011;51970;53.484;49.488;2023-12-29T06:08:34;4.90;;;2.05;;
65368;SDS011;51970;53.484;49.488;2023-12-29T06:11:00;5.53;;;2.80;;
65368;SDS011;51970;53.484;49.488;2023-12-29T06:13:27;7.03;;;3.92;;
65368;SDS011;51970;53.484;49.488;2023-12-29T06:15:54;8.38;;;3.53;;
65368;SDS011;51970;53.484;49.488;2023-12-29T06:18:21;6.60;;;2.97;;
65368;SDS011;51970;53.484;49.488;2023-12-29T06:20:47;6.53;;;2.97;;
65368;SDS011;51970;53.484;49.488;2023-12-29T06:23:14;6.38;;;3.20;;
65368;SDS011;51970;53.484;49.488;2023-12-29T06:25:42;6.80;;;3.13;;
65368;SDS011;51970;53.484;49.488;2023-12-29T06:28:08;5.35;;;2.50;;
65368;SDS011;51970;53.484;49.488;2023-12-29T06:30:34;5.55;;;3.28;;
65368;SDS011;51970;53.484;49.488;2023-12-29T06:33:00;7.93;;;2.97;;
65368;SDS011;51970;53.484;49.488;2023-12-29T06:35:26;7.45;;;2.72;;
65368;SDS011;51970;53.484;49.488;2023-12-29T06:37:53;4.88;;;2.60;;
65368;SDS011;51970;53.484;49.488;2023-12-29T06:40:19;6.22;;;2.40;;
65368;SDS011;51970;53.484;49.488;2023-12-29T06:42:45;3.75;;;1.42;;
65368;SDS011;51970;53.484;49.488;2023-12-29T06:45:11;6.13;;;2.72;;
65368;SDS011;51970;53.484;49.488;2023-12-29T06:47:37;6.85;;;2.85;;
65368;SDS011;51970;53.484;49.488;2023-12-29T06:50:04;6.18;;;2.35;;
65368;SDS011;51970;53.484;49.488;2023-12-29T06:52:31;4.63;;;2.40;;
65368;SDS011;51970;53.484;49.488;2023-12-29T06:55:00;6.78;;;3.47;;
65368;SDS011;51970;53.484;49.488;2023-12-29T06:57:27;4.95;;;2.15;;
65368;SDS011;51970;53.484;49.488;2023-12-29T06:59:53;6.70;;;3.38;;
65368;SDS011;51970;53.484;49.488;2023-12-29T07:02:19;4.40;;;1.80;;
65368;SDS011;51970;53.484;49.488;2023-12-29T07:04:45;4.63;;;2.53;;
65368;SDS011;51970;53.484;49.488;2023-12-29T07:07:11;5.80;;;2.45;;
65368;SDS011;51970;53.484;49.488;2023-12-29T07:09:38;4.07;;;2.10;;
65368;SDS011;51970;53.484;49.488;2023-12-29T07:12:06;4.93;;;2.08;;
65368;SDS011;51970;53.484;49.488;2023-12-29T07:14:32;4.47;;;1.98;;
65368;SDS011;51970;53.484;49.488;2023-12-29T07:16:59;4.75;;;1.88;;
65368;SDS011;51970;53.484;49.488;2023-12-29T07:19:25;4.15;;;2.03;;
65368;SDS011;51970;53.484;49.488;2023-12-29T07:21:54;4.03;;;2.00;;
65368;SDS011;51970;53.484;49.488;2023-12-29T07:24:21;4.72;;;2.08;;
65368;SDS011;51970;53.484;49.488;2023-12-29T07:26:47;4.28;;;2.35;;
65368;SDS011;51970;53.484;49.488;2023-12-29T07:29:13;4.38;;;2.25;;
65368;SDS011;51970;53.484;49.488;2023-12-29T07:31:40;4.72;;;2.45;;
65368;SDS011;51970;53.484;49.488;2023-12-29T07:34:06;5.03;;;2.03;;
65368;SDS011;51970;53.484;49.488;2023-12-29T07:36:32;4.50;;;2.03;;
65368;SDS011;51970;53.484;49.488;2023-12-29T07:38:58;5.25;;;2.42;;
65368;SDS011;51970;53.484;49.488;2023-12-29T07:41:24;6.53;;;2.92;;
65368;SDS011;51970;53.484;49.488;2023-12-29T07:43:50;5.72;;;3.20;;
65368;SDS011;51970;53.484;49.488;2023-12-29T07:46:26;5.78;;;2.80;;
65368;SDS011;51970;53.484;49.488;2023-12-29T07:48:52;3.83;;;1.92;;
65368;SDS011;51970;53.484;49.488;2023-12-29T07:51:18;5.75;;;3.28;;
65368;SDS011;51970;53.484;49.488;2023-12-29T07:53:45;6.55;;;2.88;;
65368;SDS011;51970;53.484;49.488;2023-12-29T07:56:11;5.43;;;2.75;;
65368;SDS011;51970;53.484;49.488;2023-12-29T07:58:37;8.07;;;2.35;;
65368;SDS011;51970;53.484;49.488;2023-12-29T08:01:03;5.28;;;2.10;;
65368;SDS011;51970;53.484;49.488;2023-12-29T08:03:29;6.10;;;3.10;;
65368;SDS011;51970;53.484;49.488;2023-12-29T08:05:55;6.07;;;2.97;;
65368;SDS011;51970;53.484;49.488;2023-12-29T08:08:22;8.15;;;2.95;;
65368;SDS011;51970;53.484;49.488;2023-12-29T08:10:48;5.70;;;2.63;;
65368;SDS011;51970;53.484;49.488;2023-12-29T08:13:14;6.97;;;3.70;;
65368;SDS011;51970;53.484;49.488;2023-12-29T08:15:41;6.35;;;2.92;;
65368;SDS011;51970;53.484;49.488;2023-12-29T08:18:08;5.38;;;2.72;;
65368;SDS011;51970;53.484;49.488;2023-12-29T08:20:34;5.97;;;2.08;;
65368;SDS011;51970;53.484;49.488;2023-12-29T08:23:02;6.03;;;3.53;;
65368;SDS011;51970;53.484;49.488;2023-12-29T08:25:28;7.70;;;2.97;;
65368;SDS011;51970;53.484;49.488;2023-12-29T08:27:58;4.60;;;2.47;;
65368;SDS011;51970;53.484;49.488;2023-12-29T08:30:24;7.25;;;3.60;;
65368;SDS011;51970;53.484;49.488;2023-12-29T08:32:51;6.70;;;2.50;;
65368;SDS011;51970;53.484;49.488;2023-12-29T08:35:17;5.00;;;2.25;;
65368;SDS011;51970;53.484;49.488;2023-12-29T08:37:44;5.50;;;3.03;;
65368;SDS011;51970;53.484;49.488;2023-12-29T08:40:11;7.00;;;3.58;;
65368;SDS011;51970;53.484;49.488;2023-12-29T08:42:37;6.03;;;3.20;;
65368;SDS011;51970;53.484;49.488;2023-12-29T08:45:04;6.70;;;3.78;;
65368;SDS011;51970;53.484;49.488;2023-12-29T08:47:30;6.50;;;4.10;;
65368;SDS011;51970;53.484;49.488;2023-12-29T08:49:57;6.10;;;3.42;;
65368;SDS011;51970;53.484;49.488;2023-12-29T08:52:23;7.10;;;3.25;;
65368;SDS011;51970;53.484;49.488;2023-12-29T08:54:49;7.10;;;3.25;;
65368;SDS011;51970;53.484;49.488;2023-12-29T08:57:16;5.28;;;2.72;;
65368;SDS011;51970;53.484;49.488;2023-12-29T08:59:42;6.72;;;3.20;;
65368;SDS011;51970;53.484;49.488;2023-12-29T09:02:08;5.93;;;2.38;;
65368;SDS011;51970;53.484;49.488;2023-12-29T09:04:35;5.93;;;2.67;;
65368;SDS011;51970;53.484;49.488;2023-12-29T09:07:01;6.45;;;2.67;;
65368;SDS011;51970;53.484;49.488;2023-12-29T09:09:27;5.18;;;2.38;;
65368;SDS011;51970;53.484;49.488;2023-12-29T09:11:54;6.18;;;3.22;;
65368;SDS011;51970;53.484;49.488;2023-12-29T09:14:20;8.50;;;3.97;;
65368;SDS011;51970;53.484;49.488;2023-12-29T09:16:49;5.10;;;2.35;;
65368;SDS011;51970;53.484;49.488;2023-12-29T09:19:16;7.07;;;3.28;;
65368;SDS011;51970;53.484;49.488;2023-12-29T09:21:42;6.53;;;3.00;;
65368;SDS011;51970;53.484;49.488;2023-12-29T09:24:09;5.40;;;2.30;;
65368;SDS011;51970;53.484;49.488;2023-12-29T09:26:35;5.65;;;3.35;;
65368;SDS011;51970;53.484;49.488;2023-12-29T09:29:01;6.53;;;2.83;;
65368;SDS011;51970;53.484;49.488;2023-12-29T09:31:27;6.65;;;2.53;;
65368;SDS011;51970;53.484;49.488;2023-12-29T09:33:53;5.60;;;2.60;;
65368;SDS011;51970;53.484;49.488;2023-12-29T09:36:19;7.25;;;4.28;;
65368;SDS011;51970;53.484;49.488;2023-12-29T09:38:46;6.15;;;3.47;;
65368;SDS011;51970;53.484;49.488;2023-12-29T09:41:13;5.07;;;2.45;;
65368;SDS011;51970;53.484;49.488;2023-12-29T09:43:41;6.78;;;2.85;;
65368;SDS011;51970;53.484;49.488;2023-12-29T09:46:09;6.03;;;2.85;;
65368;SDS011;51970;53.484;49.488;2023-12-29T09:48:38;6.00;;;2.50;;
65368;SDS011;51970;53.484;49.488;2023-12-29T09:51:05;6.43;;;3.00;;
65368;SDS011;51970;53.484;49.488;2023-12-29T09:53:33;6.50;;;3.05;;
65368;SDS011;51970;53.484;49.488;2023-12-29T09:56:01;6.70;;;3.50;;
65368;SDS011;51970;53.484;49.488;2023-12-29T09:58:29;5.80;;;2.50;;
65368;SDS011;51970;53.484;49.488;2023-12-29T10:00:57;6.47;;;3.22;;
65368;SDS011;51970;53.484;49.488;2023-12-29T10:03:23;5.10;;;2.47;;
65368;SDS011;51970;53.484;49.488;2023-12-29T10:05:50;6.00;;;2.95;;
65368;SDS011;51970;53.484;49.488;2023-12-29T10:08:19;5.40;;;2.72;;
65368;SDS011;51970;53.484;49.488;2023-12-29T10:10:47;5.57;;;2.83;;
65368;SDS011;51970;53.484;49.488;2023-12-29T10:13:15;6.80;;;2.83;;
65368;SDS011;51970;53.484;49.488;2023-12-29T10:16:04;6.78;;;3.65;;
65368;SDS011;51970;53.484;49.488;2023-12-29T10:23:58;5.63;;;2.70;;
65368;SDS011;51970;53.484;49.488;2023-12-29T10:26:34;4.75;;;2.13;;
65368;SDS011;51970;53.484;49.488;2023-12-29T10:29:02;6.45;;;3.03;;
65368;SDS011;51970;53.484;49.488;2023-12-29T10:31:29;5.53;;;4.22;;
65368;SDS011;51970;53.484;49.488;2023-12-29T10:37:00;5.78;;;3.20;;
65368;SDS011;51970;53.484;49.488;2023-12-29T10:39:54;5.55;;;2.35;;
65368;SDS011;51970;53.484;49.488;2023-12-29T10:42:21;8.32;;;3.47;;
65368;SDS011;51970;53.484;49.488;2023-12-29T10:44:47;5.07;;;2.53;;
65368;SDS011;51970;53.484;49.488;2023-12-29T10:47:30;6.18;;;3.35;;
65368;SDS011;51970;53.484;49.488;2023-12-29T10:49:58;6.78;;;3.05;;
65368;SDS011;51970;53.484;49.488;2023-12-29T10:52:25;7.40;;;3.83;;
65368;SDS011;51970;53.484;49.488;2023-12-29T10:54:54;5.38;;;3.17;;
65368;SDS011;51970;53.484;49.488;2023-12-29T10:57:33;5.55;;;2.88;;
65368;SDS011;51970;53.484;49.488;2023-12-29T10:59:59;6.65;;;3.40;;
65368;SDS011;51970;53.484;49.488;2023-12-29T11:02:26;5.57;;;2.28;;
65368;SDS011;51970;53.484;49.488;2023-12-29T11:07:37;6.40;;;3.28;;
65368;SDS011;51970;53.484;49.488;2023-12-29T11:10:04;6.20;;;2.80;;
65368;SDS011;51970;53.484;49.488;2023-12-29T11:12:32;6.45;;;2.45;;
65368;SDS011;51970;53.484;49.488;2023-12-29T11:15:06;5.78;;;3.25;;
65368;SDS011;51970;53.484;49.488;2023-12-29T11:17:34;8.32;;;3.28;;
65368;SDS011;51970;53.484;49.488;2023-12-29T11:20:01;7.63;;;3.88;;
65368;SDS011;51970;53.484;49.488;2023-12-29T11:22:30;8.20;;;2.05;;
65368;SDS011;51970;53.484;49.488;2023-12-29T11:24:57;7.65;;;4.05;;
65368;SDS011;51970;53.484;49.488;2023-12-29T11:27:29;6.65;;;3.53;;
65368;SDS011;51970;53.484;49.488;2023-12-29T11:29:57;8.30;;;3.58;;
65368;SDS011;51970;53.484;49.488;2023-12-29T11:32:27;8.30;;;4.07;;
65368;SDS011;51970;53.484;49.488;2023-12-29T11:35:02;5.53;;;2.80;;
65368;SDS011;51970;53.484;49.488;2023-12-29T11:40:45;7.55;;;4.00;;
65368;SDS011;51970;53.484;49.488;2023-12-29T11:43:40;6.15;;;2.60;;
65368;SDS011;51970;53.484;49.488;2023-12-29T11:46:07;6.65;;;3.13;;
65368;SDS011;51970;53.484;49.488;2023-12-29T11:48:53;6.30;;;2.92;;
65368;SDS011;51970;53.484;49.488;2023-12-29T11:51:31;8.18;;;3.90;;
65368;SDS011;51970;53.484;49.488;2023-12-29T11:54:09;9.52;;;4.43;;
65368;SDS011;51970;53.484;49.488;2023-12-29T11:56:37;12.85;;;4.10;;
65368;SDS011;51970;53.484;49.488;2023-12-29T11:59:19;7.68;;;3.35;;
65368;SDS011;51970;53.484;49.488;2023-12-29T12:01:47;8.15;;;4.40;;
65368;SDS011;51970;53.484;49.488;2023-12-29T12:07:08;8.90;;;4.50;;
65368;SDS011;51970;53.484;49.488;2023-12-29T12:09:38;9.52;;;4.93;;
65368;SDS011;51970;53.484;49.488;2023-12-29T12:12:05;10.48;;;4.53;;
65368;SDS011;51970;53.484;49.488;2023-12-29T12:14:45;9.85;;;4.88;;
65368;SDS011;51970;53.484;49.488;2023-12-29T12:17:11;9.90;;;4.95;;
65368;SDS011;51970;53.484;49.488;2023-12-29T12:19:38;10.05;;;5.25;;
65368;SDS011;51970;53.484;49.488;2023-12-29T12:22:05;7.68;;;4.35;;
65368;SDS011;51970;53.484;49.488;2023-12-29T12:24:35;10.35;;;4.93;;
65368;SDS011;51970;53.484;49.488;2023-12-29T12:27:02;10.55;;;4.80;;
65368;SDS011;51970;53.484;49.488;2023-12-29T12:29:29;8.20;;;4.22;;
65368;SDS011;51970;53.484;49.488;2023-12-29T12:31:59;9.98;;;5.47;;
65368;SDS011;51970;53.484;49.488;2023-12-29T12:34:25;8.13;;;3.70;;
65368;SDS011;51970;53.484;49.488;2023-12-29T12:36:52;9.30;;;5.70;;
65368;SDS011;51970;53.484;49.488;2023-12-29T12:39:22;9.95;;;5.30;;
65368;SDS011;51970;53.484;49.488;2023-12-29T12:41:49;9.73;;;5.13;;
65368;SDS011;51970;53.484;49.488;2023-12-29T12:44:15;11.15;;;6.05;;
65368;SDS011;51970;53.484;49.488;2023-12-29T12:49:08;12.93;;;5.72;;
65368;SDS011;51970;53.484;49.488;2023-12-29T12:51:34;10.02;;;5.30;;
65368;SDS011;51970;53.484;49.488;2023-12-29T12:54:00;10.18;;;4.93;;
65368;SDS011;51970;53.484;49.488;2023-12-29T12:56:27;10.02;;;4.93;;
65368;SDS011;51970;53.484;49.488;2023-12-29T12:58:57;11.40;;;6.57;;
65368;SDS011;51970;53.484;49.488;2023-12-29T13:01:24;5.75;;;2.88;;
65368;SDS011;51970;53.484;49.488;2023-12-29T13:03:52;10.40;;;5.63;;
65368;SDS011;51970;53.484;49.488;2023-12-29T13:06:18;11.40;;;5.38;;
65368;SDS011;51970;53.484;49.488;2023-12-29T13:08:47;8.90;;;5.07;;
65368;SDS011;51970;53.484;49.488;2023-12-29T13:11:19;10.02;;;4.35;;
65368;SDS011;51970;53.484;49.488;2023-12-29T13:13:47;10.07;;;5.35;;
65368;SDS011;51970;53.484;49.488;2023-12-29T13:16:14;10.65;;;5.13;;
65368;SDS011;51970;53.484;49.488;2023-12-29T13:18:40;10.50;;;5.78;;
65368;SDS011;51970;53.484;49.488;2023-12-29T13:21:06;10.70;;;5.57;;
65368;SDS011;51970;53.484;49.488;2023-12-29T13:23:34;10.05;;;4.80;;
65368;SDS011;51970;53.484;49.488;2023-12-29T13:26:07;9.85;;;5.00;;
65368;SDS011;51970;53.484;49.488;2023-12-29T13:28:36;8.13;;;4.85;;
65368;SDS011;51970;53.484;49.488;2023-12-29T13:31:02;13.07;;;5.00;;
65368;SDS011;51970;53.484;49.488;2023-12-29T13:36:23;11.93;;;5.57;;
65368;SDS011;51970;53.484;49.488;2023-12-29T13:39:13;10.45;;;5.22;;
65368;SDS011;51970;53.484;49.488;2023-12-29T13:41:55;9.68;;;4.95;;
65368;SDS011;51970;53.484;49.488;2023-12-29T13:44:23;7.93;;;3.50;;
65368;SDS011;51970;53.484;49.488;2023-12-29T13:46:51;9.45;;;5.05;;
65368;SDS011;51970;53.484;49.488;2023-12-29T13:49:19;9.98;;;4.38;;
65368;SDS011;51970;53.484;49.488;2023-12-29T13:51:45;8.38;;;4.07;;
65368;SDS011;51970;53.484;49.488;2023-12-29T13:54:11;11.00;;;4.72;;
65368;SDS011;51970;53.484;49.488;2023-12-29T13:56:38;11.25;;;4.97;;
65368;SDS011;51970;53.484;49.488;2023-12-29T13:59:05;11.18;;;6.28;;
65368;SDS011;51970;53.484;49.488;2023-12-29T14:01:36;9.52;;;5.00;;
65368;SDS011;51970;53.484;49.488;2023-12-29T14:04:03;8.35;;;4.35;;
65368;SDS011;51970;53.484;49.488;2023-12-29T14:09:26;11.93;;;6.13;;
65368;SDS011;51970;53.484;49.488;2023-12-29T14:11:52;10.73;;;5.32;;
65368;SDS011;51970;53.484;49.488;2023-12-29T14:14:25;12.75;;;5.40;;
65368;SDS011;51970;53.484;49.488;2023-12-29T14:16:52;13.32;;;7.72;;
65368;SDS011;51970;53.484;49.488;2023-12-29T14:19:19;10.13;;;4.50;;
65368;SDS011;51970;53.484;49.488;2023-12-29T14:21:49;9.00;;;4.47;;
65368;SDS011;51970;53.484;49.488;2023-12-29T14:24:19;11.45;;;6.65;;
65368;SDS011;51970;53.484;49.488;2023-12-29T14:29:19;10.38;;;5.68;;
65368;SDS011;51970;53.484;49.488;2023-12-29T14:31:46;10.70;;;5.32;;
65368;SDS011;51970;53.484;49.488;2023-12-29T14:34:13;10.30;;;4.57;;
65368;SDS011;51970;53.484;49.488;2023-12-29T14:36:40;10.15;;;5.80;;
65368;SDS011;51970;53.484;49.488;2023-12-29T14:39:07;11.50;;;5.53;;
65368;SDS011;51970;53.484;49.488;2023-12-29T14:41:35;8.85;;;4.65;;
65368;SDS011;51970;53.484;49.488;2023-12-29T14:44:02;13.73;;;5.57;;
65368;SDS011;51970;53.484;49.488;2023-12-29T14:46:28;11.85;;;6.47;;
65368;SDS011;51970;53.484;49.488;2023-12-29T14:48:56;20.20;;;7.28;;
65368;SDS011;51970;53.484;49.488;2023-12-29T14:51:26;11.68;;;5.30;;
65368;SDS011;51970;53.484;49.488;2023-12-29T14:53:52;14.82;;;5.93;;
65368;SDS011;51970;53.484;49.488;2023-12-29T14:56:18;9.75;;;4.47;;
65368;SDS011;51970;53.484;49.488;2023-12-29T14:58:44;9.63;;;5.32;;
65368;SDS011;51970;53.484;49.488;2023-12-29T15:01:11;8.57;;;4.75;;
65368;SDS011;51970;53.484;49.488;2023-12-29T15:03:37;10.07;;;4.38;;
65368;SDS011;51970;53.484;49.488;2023-12-29T15:06:04;10.60;;;5.63;;